• Join FlightAware (Why Join?)
  • Login
  • US Flag 
12:32AM EDT


 

Airport Tracker/Info


-or-


 

Live Flight TrackerFlight Track Log ✈ N860BA ✈ 04-May-2013 ✈ KPSP - KPWK

Flight Track Log - Related Links

Times and Time Zones

All times are in EDT time to prevent confusion due to time zone crossing. See the N860BA flight status page for this flight to view local times or setup timezone preferences in your user account.

Time Position Orientation Groundspeed Altitude Reporting Facility
EDT Latitude Longitude Course Direction KTS MPH feet Rate Location/Type
12:48PM 33.9150 -116.4972 59° Northeast 221 254 37,000  Level Los Angeles Center
12:49PM 33.9386 -116.4119 72° East 229 264 8,800 -12,480 Descending Los Angeles Center
12:50PM 33.9617 -116.3236 73° East 247 284 11,100 1,560 Climbing Los Angeles Center
12:51PM 33.9883 -116.2236 72° East 309 356 12,400 1,140 Climbing Los Angeles Center
12:52PM 34.1359 -115.6949 59° Northeast  Level FlightAware Approximate
12:52PM 34.0283 -116.0800 71° East 374 430 13,800  Level Los Angeles Center
12:53PM 34.2001 -115.5665 59° Northeast  Level FlightAware Approximate
12:53PM 34.0653 -115.9453 72° East 416 479 14,900  Level Los Angeles Center
12:54PM 34.1031 -115.8022 72° East 442 509 16,100 1,080 Climbing Los Angeles Center
12:55PM 34.1639 -115.6667 61° Northeast 457 526 17,200 1,200 Climbing Los Angeles Center
12:56PM 34.2483 -115.5039 58° Northeast 476 548 18,700 1,200 Climbing Los Angeles Center
12:58PM 34.3186 -115.3658 58° Northeast 482 555 19,800 1,080 Climbing Los Angeles Center
12:59PM 34.3944 -115.2181 58° Northeast 489 563 21,000 960 Climbing Los Angeles Center
01:00PM 34.4661 -115.0767 58° Northeast 492 566 22,000 960 Climbing Los Angeles Center
01:01PM 34.5522 -114.9047 59° Northeast 497 572 23,300 1,080 Climbing Los Angeles Center
01:02PM 34.6208 -114.7667 59° Northeast 501 577 24,300 960 Climbing Los Angeles Center
01:03PM 34.6961 -114.6147 59° Northeast 501 577 25,300 900 Climbing Los Angeles Center
01:04PM 34.7769 -114.4314 62° Northeast 509 586 26,200 780 Climbing Los Angeles Center
01:05PM 34.8428 -114.2775 62° Northeast 512 589 26,900 720 Climbing Los Angeles Center
01:06PM 34.9086 -114.1231 63° Northeast 515 593 27,700 720 Climbing Los Angeles Center
01:07PM 34.9775 -113.9733 61° Northeast 511 588 28,500 720 Climbing Los Angeles Center
01:08PM 35.0917 -113.8794 34° Northeast 520 598 29,200 780 Climbing Los Angeles Center
01:09PM 35.2292 -113.7669 34° Northeast 499 574 30,200 780 Climbing Los Angeles Center
01:10PM 35.3358 -113.6547 41° Northeast 514 592 30,900 720 Climbing Los Angeles Center
01:11PM 35.4047 -113.5033 61° Northeast 512 589 31,700 720 Climbing Los Angeles Center
01:12PM 35.4675 -113.3467 64° Northeast 513 590 32,500 660 Climbing Los Angeles Center
01:13PM 35.5328 -113.1831 64° Northeast 515 593 33,300 720 Climbing Los Angeles Center
01:14PM 35.6069 -112.9975 64° Northeast 509 586 34,200 600 Climbing Los Angeles Center
01:15PM 35.6644 -112.8514 64° Northeast 513 590 34,600 420 Climbing Los Angeles Center
01:17PM 35.7339 -112.6781 64° Northeast 519 597 35,100 480 Climbing Los Angeles Center
01:18PM 35.8086 -112.4875 64° Northeast 517 595 35,700 480 Climbing Los Angeles Center
01:19PM 35.8706 -112.3286 64° Northeast 516 594 36,100 420 Climbing Los Angeles Center
01:20PM 35.9319 -112.1722 64° Northeast 511 588 36,600 420 Climbing Los Angeles Center
01:21PM 35.9922 -112.0125 65° Northeast 515 593 37,000 180 Climbing Los Angeles Center
01:22PM 36.0597 -111.8383 64° Northeast 513 590 37,000  Level Los Angeles Center
01:22PM 36.0847 -111.7761 64° Northeast 514 592 37,000  Level Denver Center
01:23PM 36.1464 -111.6128 65° Northeast 523 602 37,000  Level Denver Center
01:24PM 36.2092 -111.4503 64° Northeast 526 605 37,000  Level Denver Center
01:25PM 36.2703 -111.2875 65° Northeast 524 603 37,000  Level Denver Center
01:26PM 36.3328 -111.1250 64° Northeast 526 605 37,000  Level Denver Center
01:27PM 36.4056 -110.9306 65° Northeast 521 600 37,000  Level Denver Center
01:28PM 36.4772 -110.7369 65° Northeast 518 596 37,000  Level Denver Center
01:29PM 36.5381 -110.5761 65° Northeast 517 595 37,000  Level Denver Center
01:30PM 36.5953 -110.4167 66° East 512 589 37,000  Level Denver Center
01:32PM 36.6542 -110.2542 66° East 515 593 37,000  Level Denver Center
01:33PM 36.7178 -110.0819 65° Northeast 513 590 37,000  Level Denver Center
01:34PM 36.7925 -109.8742 66° East 513 590 37,000  Level Denver Center
01:35PM 36.8486 -109.7167 66° East 517 595 37,000  Level Denver Center
01:36PM 36.9147 -109.5347 66° East 514 592 37,000  Level Denver Center
01:37PM 36.9703 -109.3769 66° East 515 593 37,000  Level Denver Center
01:38PM 37.0264 -109.2186 66° East 517 595 37,000  Level Denver Center
01:39PM 37.0914 -109.0325 66° East 519 597 37,000  Level Denver Center
01:40PM 37.1472 -108.8728 66° East 521 600 37,000  Level Denver Center
01:41PM 37.2117 -108.6881 66° East 519 597 37,000  Level Denver Center
01:42PM 37.2669 -108.5261 67° East 523 602 37,000  Level Denver Center
01:43PM 37.3400 -108.3144 66° East 521 600 37,000  Level Denver Center
01:45PM 37.4139 -108.1003 66° East 521 600 37,000  Level Denver Center
01:46PM 37.4683 -107.9383 67° East 524 603 37,000  Level Denver Center
01:47PM 37.5236 -107.7783 66° East 522 601 37,000  Level Denver Center
01:48PM 37.5869 -107.5881 67° East 525 604 37,000  Level Denver Center
01:49PM 37.6411 -107.4256 67° East 525 604 37,000  Level Denver Center
01:50PM 37.7036 -107.2339 68° East 527 606 37,000  Level Denver Center
01:51PM 37.7756 -107.0161 67° East 526 605 37,000  Level Denver Center
01:52PM 37.8303 -106.8497 67° East 527 606 37,000  Level Denver Center
01:53PM 37.8836 -106.6853 68° East 528 608 37,000  Level Denver Center
01:54PM 37.9425 -106.4989 68° East 528 608 37,000  Level Denver Center
01:55PM 37.9969 -106.3333 67° East 530 610 37,000  Level Denver Center
01:56PM 38.0669 -106.1128 68° East 529 609 37,000  Level Denver Center
01:57PM 38.1106 -105.9756 68° East 526 605 37,000  Level Denver Center
01:58PM 38.1803 -105.7536 68° East 529 609 37,000  Level Denver Center
01:59PM 38.2319 -105.5878 68° East 526 605 37,000  Level Denver Center
02:00PM 38.2919 -105.3933 68° East 529 609 37,000  Level Denver Center
02:01PM 38.3433 -105.2272 68° East 527 606 37,000  Level Denver Center
02:02PM 38.3964 -105.0536 69° East 528 608 37,000  Level Denver Center
02:03PM 38.4583 -104.8497 69° East 525 604 37,000  Level Denver Center
02:05PM 38.5122 -104.6733 69° East 529 609 37,000  Level Denver Center
02:06PM 38.5731 -104.4694 69° East 525 604 37,000  Level Denver Center
02:07PM 38.6253 -104.2958 69° East 521 600 37,000  Level Denver Center
02:08PM 38.6797 -104.1119 69° East 524 603 37,000  Level Denver Center
02:09PM 38.7286 -103.9469 69° East 518 596 37,000  Level Denver Center
02:10PM 38.7850 -103.7536 69° East 517 595 37,000  Level Denver Center
02:11PM 38.8461 -103.5442 69° East 512 589 37,000  Level Denver Center
02:12PM 38.8950 -103.3739 70° East 507 583 37,000  Level Denver Center
02:13PM 38.9428 -103.2094 69° East 491 565 37,000  Level Denver Center
02:14PM 38.9894 -103.0456 70° East 486 559 37,000  Level Denver Center
02:15PM 39.0342 -102.8839 70° East 478 550 37,000  Level Denver Center
02:16PM 39.0936 -102.6714 70° East 473 544 37,000  Level Denver Center
02:17PM 39.1358 -102.5186 70° East 471 542 37,000  Level Denver Center
02:18PM 39.1850 -102.3417 70° East 470 541 37,000  Level Denver Center
02:19PM 39.2269 -102.1906 70° East 468 539 37,000  Level Denver Center
02:21PM 39.2683 -102.0386 71° East 469 540 37,000  Level Denver Center
02:22PM 39.3167 -101.8619 70° East 468 539 37,000  Level Denver Center
02:23PM 39.3569 -101.7125 71° East 470 541 37,000  Level Denver Center
02:24PM 39.4056 -101.5344 70° East 470 541 37,000  Level Denver Center
02:25PM 39.4458 -101.3803 71° East 472 543 37,000  Level Denver Center
02:26PM 39.4931 -101.2019 71° East 471 542 37,000  Level Denver Center
02:27PM 39.5336 -101.0492 71° East 470 541 37,000  Level Denver Center
02:28PM 39.5872 -100.8425 71° East 475 547 37,000  Level Denver Center
02:29PM 39.6267 -100.6917 71° East 467 537 37,000  Level Denver Center
02:30PM 39.6728 -100.5125 71° East 469 540 37,000  Level Denver Center
02:31PM 39.7119 -100.3619 71° East 464 534 37,000  Level Denver Center
02:32PM 39.7561 -100.1867 72° East 460 529 37,000  Level Denver Center
02:33PM 39.7956 -100.0303 72° East 462 532 37,000  Level Denver Center
02:34PM 39.8356 -99.8697 72° East 466 536 37,000  Level Denver Center
02:35PM 39.8753 -99.7122 72° East 461 531 37,000  Level Denver Center
02:36PM 39.9058 -99.5856 73° East 461 531 37,000  Level Denver Center
02:37PM 39.9528 -99.3986 72° East 453 521 37,000  Level Denver Center
02:38PM 39.9917 -99.2406 72° East 458 527 37,000  Level Denver Center
02:39PM 40.0300 -99.0850 72° East 452 520 37,000  Level Denver Center
02:40PM 40.0744 -98.8975 73° East 451 519 37,000  Level Denver Center
02:41PM 40.0892 -98.8364 73° East 451 519 37,000  Level Minneapolis Center
02:42PM 40.1347 -98.6536 72° East 446 513 37,000  Level Minneapolis Center
02:43PM 40.1781 -98.5047 69° East 442 509 37,000  Level Minneapolis Center
02:44PM 40.2217 -98.3542 69° East 443 510 37,000  Level Minneapolis Center
02:45PM 40.2642 -98.2028 70° East 444 511 37,000  Level Minneapolis Center
02:46PM 40.3064 -98.0531 70° East 441 507 37,000  Level Minneapolis Center
02:47PM 40.3478 -97.9008 70° East 443 510 37,000  Level Minneapolis Center
02:48PM 40.3906 -97.7511 69° East 442 509 37,000  Level Minneapolis Center
02:49PM 40.4406 -97.5681 70° East 444 511 37,000  Level Minneapolis Center
02:50PM 40.4828 -97.4150 70° East 446 513 37,000  Level Minneapolis Center
02:51PM 40.5206 -97.2758 70° East 444 511 37,000  Level Minneapolis Center
02:52PM 40.5625 -97.1211 70° East 447 514 37,000  Level Minneapolis Center
02:53PM 40.6047 -96.9669 70° East 449 517 37,000  Level Minneapolis Center
02:54PM 40.6539 -96.7819 71° East 448 516 37,000  Level Minneapolis Center
02:55PM 40.6950 -96.6275 71° East 448 516 37,000  Level Minneapolis Center
02:56PM 40.7353 -96.4725 71° East 449 517 37,000  Level Minneapolis Center
02:57PM 40.7756 -96.3203 71° East 445 512 37,000  Level Minneapolis Center
02:58PM 40.8150 -96.1664 71° East 445 512 37,000  Level Minneapolis Center
02:59PM 40.8553 -96.0125 71° East 446 513 37,000  Level Minneapolis Center
03:00PM 40.9028 -95.8286 71° East 445 512 37,000  Level Minneapolis Center
03:01PM 40.9417 -95.6764 71° East 443 510 37,000  Level Minneapolis Center
03:02PM 40.9808 -95.5219 71° East 444 511 37,000  Level Minneapolis Center
03:03PM 41.0200 -95.3692 71° East 443 510 37,000  Level Minneapolis Center
03:04PM 41.0583 -95.2172 71° East 440 506 37,000  Level Minneapolis Center
03:05PM 41.0958 -95.0633 72° East 439 505 37,000  Level Minneapolis Center
03:07PM 41.1347 -94.9106 71° East 439 505 37,000  Level Minneapolis Center
03:08PM 41.1861 -94.6953 72° East 438 504 37,000 -60 Level Minneapolis Center
03:09PM 41.2242 -94.5417 72° East 440 506 36,900  Descending Minneapolis Center
03:10PM 41.2608 -94.3875 72° East 438 504 37,000  Climbing Minneapolis Center
03:11PM 41.2983 -94.2336 72° East 438 504 37,000  Level Minneapolis Center
03:12PM 41.3361 -94.0753 72° East 440 506 37,000  Level Minneapolis Center
03:13PM 41.3731 -93.9231 72° East 437 503 37,000  Level Minneapolis Center
03:14PM 41.4097 -93.7686 72° East 438 504 37,000  Level Minneapolis Center
03:15PM 41.4447 -93.6125 73° East 440 506 37,000  Level Minneapolis Center
03:16PM 41.4678 -93.4850 76° East 442 509 37,000  Level Minneapolis Center
03:17PM 41.5050 -93.2633 77° East 441 507 37,000 -300 Level Minneapolis Center
03:18PM 41.5331 -93.1028 77° East 443 510 36,500 -900 Descending Minneapolis Center
03:19PM 41.5592 -92.9464 77° East 439 505 35,200 -1,200 Descending Minneapolis Center
03:20PM 41.5844 -92.7944 77° East 429 494 34,100 -1,140 Descending Minneapolis Center
03:21PM 41.6106 -92.6453 77° East 420 483 33,000 -1,020 Descending Minneapolis Center
03:22PM 41.6342 -92.4983 78° East 412 474 32,100 -840 Descending Minneapolis Center
03:23PM 41.6581 -92.3514 78° East 409 471 31,400 -720 Descending Minneapolis Center
03:23PM 41.6636 -92.3172 78° East 408 470 31,200 -360 Descending Chicago Center
03:24PM 41.6931 -92.1358 78° East 418 481 31,000 -120 Descending Chicago Center
03:25PM 41.7181 -91.9781 78° East 432 497 31,000  Level Chicago Center
03:26PM 41.7433 -91.8194 78° East 438 504 31,000  Level Chicago Center
03:27PM 41.7683 -91.6608 78° East 440 506 31,000  Level Chicago Center
03:28PM 41.7939 -91.5028 78° East 440 506 31,000  Level Chicago Center
03:29PM 41.8233 -91.3100 78° East 444 511 31,000 -540 Level Chicago Center
03:31PM 41.8467 -91.1553 79° East 434 499 29,900 -1,320 Descending Chicago Center
03:32PM 41.8708 -90.9989 78° East 433 498 28,300 -1,620 Descending Chicago Center
03:33PM 41.8947 -90.8364 79° East 448 516 26,600 -1,620 Descending Chicago Center
03:34PM 41.9194 -90.6731 78° East 452 520 25,000 -1,800 Descending Chicago Center
03:35PM 41.9522 -90.4792 77° East 451 519 23,000 -2,040 Descending Chicago Center
03:36PM 41.9892 -90.3178 73° East 456 525 20,800 -2,340 Descending Chicago Center
03:37PM 42.0239 -90.1564 74° East 455 524 18,300 -2,580 Descending Chicago Center
03:38PM 42.0586 -90.0008 73° East 440 506 15,600 -2,580 Descending Chicago Center
03:39PM 42.0886 -89.8514 75° East 393 452 13,000 -2,520 Descending Chicago Center
03:40PM 42.1167 -89.7203 74° East 371 427 10,400 -1,500 Descending Chicago Center
03:41PM 42.1422 -89.5961 74° East 349 402 10,000 -240 Descending Chicago Center
03:42PM 42.1731 -89.4467 74° East 352 405 10,000 -60 Level Chicago Center
03:43PM 42.1992 -89.3208 74° East 351 404 9,900 -480 Descending Chicago Center
03:44PM 42.2217 -89.2158 74° East 304 350 9,100 -780 Descending Chicago Center
03:45PM 42.2422 -89.1186 74° East 281 323 8,400 -660 Descending Chicago Center
03:46PM 42.2639 -89.0225 73° East 271 312 7,800 -660 Descending Chicago Center
03:47PM 42.2850 -88.9211 74° East 278 320 7,100 -720 Descending Chicago Center
03:48PM 42.3092 -88.8114 73° East 275 316 6,400 -720 Descending Chicago Center
03:49PM 42.3294 -88.7117 75° East 275 316 5,700 -720 Descending Chicago Center
03:50PM 42.3519 -88.6056 74° East 279 321 5,000 -360 Descending Chicago Center
03:51PM 42.3717 -88.5089 75° East 272 313 5,000 -60 Level Chicago Center
03:52PM 42.3517 -88.4275 108° East 242 278 4,900 -60 Descending Chicago Center
03:53PM 42.3222 -88.3358 113° Southeast 236 272 4,900 -360 Level Chicago Center
03:54PM 42.2947 -88.2483 113° Southeast 246 283 4,200 -540 Descending Chicago Center
03:55PM 42.2664 -88.1608 114° Southeast 252 290 3,800 -900 Descending Chicago Center
03:56PM 42.2403 -88.0700 111° Southeast 256 295 2,400 -720 Descending Chicago Center
03:57PM 42.2122 -87.9881 115° Southeast 253 291 2,400 -120 Level Chicago Center
03:58PM 42.1781 -87.9378 133° Southeast 222 255 2,200 -300 Descending Chicago Center
03:59PM 42.1358 -87.9128 156° South 196 226 1,800 -420 Descending Chicago Center
04:01PM 42.1143 -87.9015 132° Southeast  Level Estimated